Time;durP1;ratioP1;P1;durP2;ratioP2;P2;SDS_P1;SDS_P2;PMS_P1;PMS_P2;Temp;Humidity;BMP_temperature;BMP_pressure;BME280_temperature;BME280_humidity;BME280_pressure;Samples;Min_cycle;Max_cycle;Signal;HPM_P1;HPM_P2
2022/08/31 00:05:39;;;;;;;;;;;;;;;17.68;58.10;102232.94;4945769;28;119808;-80
2022/08/31 00:08:05;;;;;;;;;;;;;;;17.64;58.09;102229.50;4926394;28;122968;-81
2022/08/31 00:10:31;;;;;;;;;;;;;;;17.59;58.40;102230.91;4943046;28;120728;-81
2022/08/31 00:13:00;;;;;;;;;;;;;;;17.55;58.37;102235.84;4944177;28;120443;-81
2022/08/31 00:15:25;;;;;;;;;;;;;;;17.50;58.70;102239.97;4927251;28;120645;-81
2022/08/31 00:17:51;;;;;;;;;;;;;;;17.45;58.76;102237.81;4911480;28;122185;-81
2022/08/31 00:20:17;;;;;;;;;;;;;;;17.41;58.44;102233.66;4945152;28;122137;-81
2022/08/31 00:22:43;;;;;;;;;;;;;;;17.37;58.62;102233.81;4944966;28;123382;-81
2022/08/31 00:25:09;;;;;;;;;;;;;;;17.35;58.65;102229.94;4927462;28;121286;-81
2022/08/31 00:27:34;;;;;;;;;;;;;;;17.33;58.82;102238.75;4948223;28;122046;-81
2022/08/31 00:30:00;;;;;;;;;;;;;;;17.31;58.93;102240.44;4945623;28;120300;-81
2022/08/31 00:32:25;;;;;;;;;;;;;;;17.29;58.71;102234.56;4929180;28;122710;-81
2022/08/31 00:34:51;;;;;;;;;;;;;;;17.28;59.13;102235.81;4961485;28;120819;-81
2022/08/31 00:37:18;;;;;;;;;;;;;;;17.27;59.00;102243.34;4944913;28;120098;-82
2022/08/31 00:39:46;;;;;;;;;;;;;;;17.26;58.93;102233.47;4910154;28;121423;-81
2022/08/31 00:42:12;;;;;;;;;;;;;;;17.25;59.18;102240.25;4907185;28;123144;-80
2022/08/31 00:44:38;;;;;;;;;;;;;;;17.25;59.30;102239.47;4927681;28;122270;-80
2022/08/31 00:47:04;;;;;;;;;;;;;;;17.25;59.50;102236.69;4955992;28;120286;-79
2022/08/31 00:49:32;;;;;;;;;;;;;;;17.25;59.62;102236.69;4931437;28;122845;-80
2022/08/31 00:52:07;;;;;;;;;;;;;;;17.23;59.46;102237.16;4940570;28;120174;-80
2022/08/31 00:54:35;;;;;;;;;;;;;;;17.21;59.64;102239.63;4925841;28;122938;-80
2022/08/31 00:57:01;;;;;;;;;;;;;;;17.19;59.57;102237.31;4908463;28;120095;-80
2022/08/31 00:59:27;;;;;;;;;;;;;;;17.16;59.75;102237.47;4960535;28;122138;-80
2022/08/31 01:01:53;;;;;;;;;;;;;;;17.12;59.26;102239.63;4923166;28;123064;-80
2022/08/31 01:04:48;;;;;;;;;;;;;;;17.09;59.33;102234.97;4945801;28;120695;-80
2022/08/31 01:07:13;;;;;;;;;;;;;;;17.06;59.42;102228.34;4944547;28;120366;-80
2022/08/31 01:09:41;;;;;;;;;;;;;;;17.04;59.61;102241.91;4948030;28;125074;-80
2022/08/31 01:12:07;;;;;;;;;;;;;;;17.01;59.81;102239.25;4927740;28;122382;-80
2022/08/31 01:14:34;;;;;;;;;;;;;;;16.99;60.07;102236.16;4908307;28;123126;-79
2022/08/31 01:17:00;;;;;;;;;;;;;;;16.98;59.82;102240.94;4923451;28;120358;-80
2022/08/31 01:19:45;;;;;;;;;;;;;;;16.96;59.75;102240.63;4941929;28;120533;-79
2022/08/31 01:22:23;;;;;;;;;;;;;;;16.92;59.92;102228.91;4908109;28;123522;-79
2022/08/31 01:24:49;;;;;;;;;;;;;;;16.88;59.86;102237.38;4940319;28;122139;-79
2022/08/31 01:27:22;;;;;;;;;;;;;;;16.85;60.00;102235.53;4941505;28;120592;-78
2022/08/31 01:29:57;;;;;;;;;;;;;;;16.83;60.18;102234.44;4924654;28;121798;-79
2022/08/31 01:32:27;;;;;;;;;;;;;;;16.81;60.26;102232.13;4933128;28;120100;-79
2022/08/31 01:34:53;;;;;;;;;;;;;;;16.77;60.09;102222.38;4927948;28;122894;-79
2022/08/31 01:37:19;;;;;;;;;;;;;;;16.76;60.52;102237.47;4928719;28;119784;-79
2022/08/31 01:39:48;;;;;;;;;;;;;;;16.75;60.27;102224.84;4960451;28;120094;-79
2022/08/31 01:42:18;;;;;;;;;;;;;;;16.75;60.58;102233.16;4927564;28;119932;-79
2022/08/31 01:44:45;;;;;;;;;;;;;;;16.75;60.72;102224.84;4960026;28;119863;-79
2022/08/31 01:47:11;;;;;;;;;;;;;;;16.76;61.03;102218.06;4928574;28;121740;-78
2022/08/31 01:49:36;;;;;;;;;;;;;;;16.76;61.00;102234.69;4943697;28;121394;-79
2022/08/31 01:52:02;;;;;;;;;;;;;;;16.75;61.04;102231.16;4925828;28;122005;-79
2022/08/31 01:54:32;;;;;;;;;;;;;;;16.74;60.91;102226.84;4947540;28;120423;-79
2022/08/31 01:56:58;;;;;;;;;;;;;;;16.75;61.03;102222.06;4927364;28;119793;-79
2022/08/31 01:59:37;;;;;;;;;;;;;;;16.74;60.85;102220.53;4911618;28;124497;-79
2022/08/31 02:02:17;;;;;;;;;;;;;;;16.74;61.12;102228.84;4911098;28;123001;-79
2022/08/31 02:04:46;;;;;;;;;;;;;;;16.72;61.43;102234.84;4910798;28;120377;-79
2022/08/31 02:07:12;;;;;;;;;;;;;;;16.71;61.63;102229.75;4928804;28;121760;-80
2022/08/31 02:09:37;;;;;;;;;;;;;;;16.70;61.55;102228.22;4959272;28;120278;-79
2022/08/31 02:12:04;;;;;;;;;;;;;;;16.70;61.91;102226.22;4944603;28;120057;-79
2022/08/31 02:14:31;;;;;;;;;;;;;;;16.71;61.80;102221.44;4910064;28;122981;-79
2022/08/31 02:16:57;;;;;;;;;;;;;;;16.70;62.09;102231.75;4947795;28;119794;-79
2022/08/31 02:19:22;;;;;;;;;;;;;;;16.71;62.05;102229.75;4944950;28;121577;-79
2022/08/31 02:21:48;;;;;;;;;;;;;;;16.71;62.14;102227.00;4943625;28;120276;-79
2022/08/31 02:24:13;;;;;;;;;;;;;;;16.71;62.25;102222.22;4907725;28;121918;-78
2022/08/31 02:26:39;;;;;;;;;;;;;;;16.71;62.22;102232.53;4925924;28;121130;-79
2022/08/31 02:29:06;;;;;;;;;;;;;;;16.70;62.39;102225.44;4943067;28;122761;-79
2022/08/31 02:31:31;;;;;;;;;;;;;;;16.70;62.39;102219.91;4940924;28;120348;-79
2022/08/31 02:33:59;;;;;;;;;;;;;;;16.70;62.29;102228.22;4939708;28;121160;-79
2022/08/31 02:36:25;;;;;;;;;;;;;;;16.70;62.26;102217.91;4922806;28;125267;-79
2022/08/31 02:38:50;;;;;;;;;;;;;;;16.71;62.16;102235.31;4946089;28;120432;-79
2022/08/31 02:41:18;;;;;;;;;;;;;;;16.70;62.25;102225.44;4954216;28;120801;-79
2022/08/31 02:43:43;;;;;;;;;;;;;;;16.70;62.48;102217.91;4954160;28;120701;-79
2022/08/31 02:46:09;;;;;;;;;;;;;;;16.69;62.57;102224.69;4922037;28;121661;-80
2022/08/31 02:48:41;;;;;;;;;;;;;;;16.68;62.63;102222.38;4942320;28;120296;-79
2022/08/31 02:51:10;;;;;;;;;;;;;;;16.68;62.56;102225.13;4924409;28;119899;-79
2022/08/31 02:53:35;;;;;;;;;;;;;;;16.67;62.64;102226.38;4917628;28;121976;-78
2022/08/31 02:56:01;;;;;;;;;;;;;;;16.65;62.79;102226.03;4940473;28;120211;-78
2022/08/31 02:58:30;;;;;;;;;;;;;;;16.65;62.86;102224.03;4942238;28;120408;-78
2022/08/31 03:00:56;;;;;;;;;;;;;;;16.65;62.80;102220.47;4945909;28;121685;-79
2022/08/31 03:03:21;;;;;;;;;;;;;;;16.64;62.83;102218.94;4925658;28;121979;-78
2022/08/31 03:05:48;;;;;;;;;;;;;;;16.64;62.97;102211.41;4924239;28;121258;-78
2022/08/31 03:08:14;;;;;;;;;;;;;;;16.64;63.17;102208.63;4943182;28;120456;-79
2022/08/31 03:10:41;;;;;;;;;;;;;;;16.65;63.15;102209.41;4927081;28;120186;-78
2022/08/31 03:13:06;;;;;;;;;;;;;;;16.63;62.93;102212.63;4943313;28;120005;-79
2022/08/31 03:15:33;;;;;;;;;;;;;;;16.62;63.05;102199.22;4941381;28;123222;-78
2022/08/31 03:18:00;;;;;;;;;;;;;;;16.62;63.25;102213.09;4943350;28;119958;-78
2022/08/31 03:20:27;;;;;;;;;;;;;;;16.62;63.24;102204.78;4931257;28;119558;-79
2022/08/31 03:22:53;;;;;;;;;;;;;;;16.61;63.66;102206.00;4944992;28;120981;-78
2022/08/31 03:25:18;;;;;;;;;;;;;;;16.61;63.71;102204.00;4946426;28;120479;-79
2022/08/31 03:27:44;;;;;;;;;;;;;;;16.62;63.56;102202.78;4946326;28;120321;-78
2022/08/31 03:30:11;;;;;;;;;;;;;;;16.63;63.65;102198.00;4948442;28;119867;-79
2022/08/31 03:32:39;;;;;;;;;;;;;;;16.62;63.83;102204.78;4946301;28;119957;-79
2022/08/31 03:35:05;;;;;;;;;;;;;;;16.62;63.86;102196.47;4945884;28;120717;-78
2022/08/31 03:37:31;;;;;;;;;;;;;;;16.63;63.95;102209.09;4914731;28;120784;-78
2022/08/31 03:39:59;;;;;;;;;;;;;;;16.63;63.77;102206.31;4946732;28;120304;-79
2022/08/31 03:42:25;;;;;;;;;;;;;;;16.64;64.05;102208.63;4949370;28;119876;-79
2022/08/31 03:44:51;;;;;;;;;;;;;;;16.64;63.79;102200.31;4945765;28;122228;-79
2022/08/31 03:47:21;;;;;;;;;;;;;;;16.65;63.94;102204.63;4928750;28;123154;-79
2022/08/31 03:49:47;;;;;;;;;;;;;;;16.67;64.01;102210.50;4931173;28;120522;-79
2022/08/31 03:52:32;;;;;;;;;;;;;;;16.68;64.18;102214.06;4926226;28;121500;-79
2022/08/31 03:55:09;;;;;;;;;;;;;;;16.69;63.98;102226.69;4929145;28;123209;-78
2022/08/31 03:57:37;;;;;;;;;;;;;;;16.68;64.07;102230.69;4930897;28;120076;-79
2022/08/31 04:00:03;;;;;;;;;;;;;;;16.66;63.88;102222.81;4930733;28;120399;-79
2022/08/31 04:02:41;;;;;;;;;;;;;;;16.65;63.88;102223.25;4945190;28;119961;-79
2022/08/31 04:05:26;;;;;;;;;;;;;;;16.64;63.85;102228.00;4951076;28;121177;-80
2022/08/31 04:08:11;;;;;;;;;;;;;;;16.62;63.83;102227.69;4962205;28;122930;-80
2022/08/31 04:10:50;;;;;;;;;;;;;;;16.60;63.83;102224.63;4945439;28;119878;-80
2022/08/31 04:13:39;;;;;;;;;;;;;;;16.60;63.86;102229.38;4945805;28;120080;-79
2022/08/31 04:16:25;;;;;;;;;;;;;;;16.57;64.10;102226.31;4947154;28;119901;-79
2022/08/31 04:19:00;;;;;;;;;;;;;;;16.56;63.85;102235.84;4946311;28;121149;-79
2022/08/31 04:21:29;;;;;;;;;;;;;;;16.56;63.98;102229.50;4944650;28;121205;-79
2022/08/31 04:23:56;;;;;;;;;;;;;;;16.55;64.01;102228.72;4925630;28;120098;-79
2022/08/31 04:26:23;;;;;;;;;;;;;;;16.57;64.16;102231.06;4945490;28;120245;-79
2022/08/31 04:28:49;;;;;;;;;;;;;;;16.59;63.86;102234.16;4916883;28;121408;-79
2022/08/31 04:31:16;;;;;;;;;;;;;;;16.61;64.12;102237.25;4929327;28;119609;-79
2022/08/31 04:33:42;;;;;;;;;;;;;;;16.64;64.27;102238.31;4929055;28;121630;-79
2022/08/31 04:36:09;;;;;;;;;;;;;;;16.66;64.16;102231.13;4944859;28;119990;-80
2022/08/31 04:38:35;;;;;;;;;;;;;;;16.71;64.41;102236.06;4928039;28;120416;-80
2022/08/31 04:41:03;;;;;;;;;;;;;;;16.74;64.35;102237.16;4927868;28;123196;-79
2022/08/31 04:43:29;;;;;;;;;;;;;;;16.78;64.53;102241.31;4928772;28;120017;-79
2022/08/31 04:45:55;;;;;;;;;;;;;;;16.84;64.57;102235.97;4929053;28;120973;-79
2022/08/31 04:48:20;;;;;;;;;;;;;;;16.85;64.55;102241.06;4911695;28;121536;-79
2022/08/31 04:50:49;;;;;;;;;;;;;;;16.89;64.49;102240.94;4949711;28;120485;-79
2022/08/31 04:53:15;;;;;;;;;;;;;;;16.92;64.43;102239.25;4959164;28;119910;-79
2022/08/31 04:56:13;;;;;;;;;;;;;;;16.95;64.09;102232.78;4930006;28;120082;-78
2022/08/31 04:58:40;;;;;;;;;;;;;;;16.95;63.97;102239.09;4942022;28;119916;-79
2022/08/31 05:01:09;;;;;;;;;;;;;;;16.94;64.36;102229.22;4928369;28;121852;-80
2022/08/31 05:03:52;;;;;;;;;;;;;;;16.97;64.36;102244.19;4928656;28;123187;-79
2022/08/31 05:06:27;;;;;;;;;;;;;;;17.02;65.19;102226.94;4945274;28;120059;-79
2022/08/31 05:08:54;;;;;;;;;;;;;;;17.10;65.67;102230.97;4928448;28;121929;-79
2022/08/31 05:11:21;;;;;;;;;;;;;;;17.17;66.37;102239.78;4942603;28;121071;-79
2022/08/31 05:13:49;;;;;;;;;;;;;;;17.23;66.79;102236.38;4949942;28;120606;-80
2022/08/31 05:16:19;;;;;;;;;;;;;;;17.32;67.23;102231.66;4913478;28;123043;-79
2022/08/31 05:18:46;;;;;;;;;;;;;;;17.42;67.77;102232.41;4912725;28;120320;-79
2022/08/31 05:21:14;;;;;;;;;;;;;;;17.52;67.68;102231.22;4929189;28;121611;-80
2022/08/31 05:23:48;;;;;;;;;;;;;;;17.61;68.00;102236.00;4945091;28;120474;-79
2022/08/31 05:26:19;;;;;;;;;;;;;;;17.70;68.09;102231.22;4928590;28;120683;-80
2022/08/31 05:28:45;;;;;;;;;;;;;;;17.82;68.17;102231.56;4943549;28;119963;-80
2022/08/31 05:31:10;;;;;;;;;;;;;;;17.94;68.34;102236.94;4910340;28;122709;-79
2022/08/31 05:33:41;;;;;;;;;;;;;;;18.04;68.37;102238.47;4946637;28;120405;-80
2022/08/31 05:36:07;;;;;;;;;;;;;;;18.16;68.08;102247.84;4926493;28;123260;-79
2022/08/31 05:38:52;;;;;;;;;;;;;;;18.28;68.23;102237.81;4908519;28;122833;-80
2022/08/31 05:41:18;;;;;;;;;;;;;;;18.38;67.93;102237.31;4928784;28;121511;-79
2022/08/31 05:43:44;;;;;;;;;;;;;;;18.50;68.02;102245.94;4944118;28;123488;-80
2022/08/31 05:46:11;;;;;;;;;;;;;;;18.58;67.76;102241.59;4942415;28;120125;-79
2022/08/31 05:48:37;;;;;;;;;;;;;;;18.65;67.84;102250.38;4912069;28;121609;-80
2022/08/31 05:51:12;;;;;;;;;;;;;;;18.74;67.73;102248.81;4944332;28;120062;-80
2022/08/31 05:53:39;;;;;;;;;;;;;;;18.80;68.06;102241.38;4905272;28;122685;-80
2022/08/31 05:56:10;;;;;;;;;;;;;;;18.87;67.85;102255.69;4914671;28;121385;-80
2022/08/31 05:58:36;;;;;;;;;;;;;;;18.95;67.82;102250.59;4941387;28;120591;-79
2022/08/31 06:01:02;;;;;;;;;;;;;;;19.01;67.76;102249.47;4910437;28;122592;-79
2022/08/31 06:03:58;;;;;;;;;;;;;;;19.09;67.67;102255.44;4927306;28;122836;-80
2022/08/31 06:06:26;;;;;;;;;;;;;;;19.14;67.57;102254.00;4927663;28;120179;-80
2022/08/31 06:08:53;;;;;;;;;;;;;;;19.20;67.30;102260.50;4943614;28;121105;-79
2022/08/31 06:11:21;;;;;;;;;;;;;;;19.25;67.32;102265.41;4927170;28;122831;-80
2022/08/31 06:13:49;;;;;;;;;;;;;;;19.31;67.10;102267.06;4944369;28;120263;-80
2022/08/31 06:16:16;;;;;;;;;;;;;;;19.36;67.00;102268.41;4926218;28;121892;-80
2022/08/31 06:18:49;;;;;;;;;;;;;;;19.39;66.87;102270.25;4948081;28;119875;-79
2022/08/31 06:21:23;;;;;;;;;;;;;;;19.45;66.83;102278.72;4944662;28;120007;-79
2022/08/31 06:23:49;;;;;;;;;;;;;;;19.47;66.69;102279.78;4942398;28;120353;-79
2022/08/31 06:26:16;;;;;;;;;;;;;;;19.51;66.69;102288.72;4927192;28;120104;-79
2022/08/31 06:28:43;;;;;;;;;;;;;;;19.56;66.51;102288.09;4945232;28;120179;-79
2022/08/31 06:31:36;;;;;;;;;;;;;;;19.61;66.34;102281.88;4944058;28;122855;-79
2022/08/31 06:34:05;;;;;;;;;;;;;;;19.68;66.37;102283.56;4943474;28;122603;-79
2022/08/31 06:36:51;;;;;;;;;;;;;;;19.73;66.32;102282.88;4942189;28;120150;-79
2022/08/31 06:39:28;;;;;;;;;;;;;;;19.80;65.96;102287.31;4910687;28;122740;-80
2022/08/31 06:42:13;;;;;;;;;;;;;;;19.83;65.46;102281.56;4962575;28;119981;-80
2022/08/31 06:44:58;;;;;;;;;;;;;;;19.88;65.23;102280.16;4943909;28;120077;-79
2022/08/31 06:48:00;;;;;;;;;;;;;;;20.00;65.09;102286.69;4906680;28;120607;-79
2022/08/31 06:50:26;;;;;;;;;;;;;;;20.08;64.35;102287.84;4921267;28;120132;-80
2022/08/31 06:52:56;;;;;;;;;;;;;;;20.13;63.79;102285.19;4909475;28;122979;-79
2022/08/31 06:55:38;;;;;;;;;;;;;;;20.15;63.65;102296.63;4926361;28;119708;-79
2022/08/31 06:58:23;;;;;;;;;;;;;;;20.19;63.55;102299.22;4945183;28;119592;-79
2022/08/31 07:01:08;;;;;;;;;;;;;;;20.23;63.53;102299.78;4955323;28;123027;-79
2022/08/31 07:03:54;;;;;;;;;;;;;;;20.28;63.42;102298.34;4942489;28;120440;-79
2022/08/31 07:06:21;;;;;;;;;;;;;;;20.33;63.25;102292.09;4944414;28;121447;-79
2022/08/31 07:08:51;;;;;;;;;;;;;;;20.39;63.12;102299.31;4926006;28;120686;-79
2022/08/31 07:11:22;;;;;;;;;;;;;;;20.46;62.65;102298.97;4908745;28;122891;-80
2022/08/31 07:13:48;;;;;;;;;;;;;;;20.51;61.98;102298.28;4926585;28;123136;-80
2022/08/31 07:16:16;;;;;;;;;;;;;;;20.55;61.39;102295.28;4939462;28;121519;-79
2022/08/31 07:18:42;;;;;;;;;;;;;;;20.61;61.12;102304.53;4938637;28;121161;-79
2022/08/31 07:21:14;;;;;;;;;;;;;;;20.63;60.75;102304.06;4922637;28;123559;-78
2022/08/31 07:23:40;;;;;;;;;;;;;;;20.65;60.12;102299.53;4941483;28;120477;-79
2022/08/31 07:26:16;;;;;;;;;;;;;;;20.70;59.34;102298.09;4959623;28;119699;-79
2022/08/31 07:28:42;;;;;;;;;;;;;;;20.74;58.86;102307.78;4924428;28;121922;-79
2022/08/31 07:31:10;;;;;;;;;;;;;;;20.81;58.55;102301.03;4958863;28;120150;-80
2022/08/31 07:33:39;;;;;;;;;;;;;;;20.84;57.39;102300.09;4921467;28;123044;-80
2022/08/31 07:36:06;;;;;;;;;;;;;;;20.86;55.67;102302.41;4935761;28;122553;-79
2022/08/31 07:44:21;;;;;;;;;;;;;;;20.98;54.22;102298.53;4926060;28;123022;-79
2022/08/31 07:46:48;;;;;;;;;;;;;;;21.01;53.97;102298.31;4940249;28;121369;-79
2022/08/31 07:49:17;;;;;;;;;;;;;;;21.08;54.06;102297.94;4929688;28;122712;-79
2022/08/31 07:52:02;;;;;;;;;;;;;;;21.17;53.89;102305.41;4942298;28;122232;-79
2022/08/31 07:54:43;;;;;;;;;;;;;;;21.23;52.64;102309.03;4925667;28;122256;-78
2022/08/31 07:57:42;;;;;;;;;;;;;;;21.29;51.48;102301.53;4954944;28;120237;-79
2022/08/31 08:00:13;;;;;;;;;;;;;;;21.41;50.80;102311.59;4942737;28;120514;-78
2022/08/31 08:02:46;;;;;;;;;;;;;;;21.52;50.39;102299.81;4909345;28;123255;-79
2022/08/31 08:05:19;;;;;;;;;;;;;;;21.64;50.31;102298.69;4941811;28;120468;-78
2022/08/31 08:08:07;;;;;;;;;;;;;;;21.80;49.23;102294.59;4936548;28;124160;-79
2022/08/31 08:10:52;;;;;;;;;;;;;;;21.94;48.56;102302.09;4947189;28;120102;-79
2022/08/31 08:13:36;;;;;;;;;;;;;;;22.00;48.02;102299.34;4951321;28;120389;-80
2022/08/31 08:16:06;;;;;;;;;;;;;;;21.97;48.24;102297.53;4929290;28;123308;-79
2022/08/31 08:18:51;;;;;;;;;;;;;;;21.98;48.26;102305.44;4960187;28;120447;-78
2022/08/31 08:21:21;;;;;;;;;;;;;;;21.98;48.15;102311.03;4943353;28;122253;-79
2022/08/31 08:23:46;;;;;;;;;;;;;;;22.06;48.09;102303.03;4923801;28;123861;-79
2022/08/31 08:26:30;;;;;;;;;;;;;;;22.14;47.99;102301.31;4944116;28;120235;-79
2022/08/31 08:29:12;;;;;;;;;;;;;;;22.34;48.06;102306.88;4928469;28;120128;-79
2022/08/31 08:31:43;;;;;;;;;;;;;;;22.55;47.49;102307.56;4928332;28;123022;-79
2022/08/31 08:34:09;;;;;;;;;;;;;;;22.72;47.70;102298.56;4942539;28;121485;-80
2022/08/31 08:36:36;;;;;;;;;;;;;;;22.91;46.82;102300.47;4947843;28;120374;-80
2022/08/31 08:39:04;;;;;;;;;;;;;;;23.02;46.44;102299.81;4927209;28;120526;-79
2022/08/31 08:41:31;;;;;;;;;;;;;;;23.10;46.53;102306.47;4925179;28;121634;-79
2022/08/31 08:43:59;;;;;;;;;;;;;;;23.16;46.02;102307.25;4939458;28;123877;-81
2022/08/31 08:46:27;;;;;;;;;;;;;;;23.16;45.36;102309.28;4925934;28;120757;-79
2022/08/31 08:48:54;;;;;;;;;;;;;;;23.17;45.10;102300.41;4942139;28;120385;-80
2022/08/31 08:51:23;;;;;;;;;;;;;;;23.20;45.32;102302.22;4942023;28;120695;-80
2022/08/31 08:54:01;;;;;;;;;;;;;;;23.19;45.62;102313.91;4958138;28;120500;-79
2022/08/31 08:56:32;;;;;;;;;;;;;;;23.00;44.97;102307.94;4941248;28;121617;-80
2022/08/31 08:58:57;;;;;;;;;;;;;;;22.91;45.51;102310.91;4913847;28;123097;-80
2022/08/31 09:01:29;;;;;;;;;;;;;;;22.86;45.56;102304.00;4908695;28;122252;-80
2022/08/31 09:04:11;;;;;;;;;;;;;;;22.72;45.35;102313.31;4927823;28;121393;-80
2022/08/31 09:07:21;;;;;;;;;;;;;;;22.57;45.85;102310.63;4919818;28;120022;-80
2022/08/31 09:09:52;;;;;;;;;;;;;;;22.62;46.06;102311.94;4959669;28;120425;-80
2022/08/31 09:12:29;;;;;;;;;;;;;;;22.71;45.50;102313.78;4927477;28;123346;-79
2022/08/31 09:15:16;;;;;;;;;;;;;;;22.67;45.19;102314.78;4927662;28;120770;-79
2022/08/31 09:17:51;;;;;;;;;;;;;;;22.61;45.31;102299.22;4959864;28;121347;-77
2022/08/31 09:20:16;;;;;;;;;;;;;;;22.50;45.47;102307.53;4937129;28;121822;-79
2022/08/31 09:22:49;;;;;;;;;;;;;;;22.35;45.38;102300.00;4923122;28;120778;-79
2022/08/31 09:25:33;;;;;;;;;;;;;;;22.27;45.81;102298.16;4922356;28;122663;-80
2022/08/31 09:28:43;;;;;;;;;;;;;;;22.34;46.29;102304.06;4956953;28;120888;-79
2022/08/31 09:31:28;;;;;;;;;;;;;;;22.49;46.39;102308.78;4923715;28;120342;-79
2022/08/31 09:33:53;;;;;;;;;;;;;;;22.44;44.98;102313.03;4922026;28;120316;-80
2022/08/31 09:36:26;;;;;;;;;;;;;;;22.46;45.47;102310.50;4905467;28;120554;-80
2022/08/31 09:38:52;;;;;;;;;;;;;;;22.52;45.43;102302.97;4923220;28;121793;-80
2022/08/31 09:41:20;;;;;;;;;;;;;;;22.57;45.25;102305.03;4904360;28;124561;-79
2022/08/31 09:43:47;;;;;;;;;;;;;;;22.49;44.73;102303.19;4924488;28;121126;-79
2022/08/31 09:46:25;;;;;;;;;;;;;;;22.46;44.82;102298.56;4924446;28;121157;-80
2022/08/31 09:48:54;;;;;;;;;;;;;;;22.42;44.80;102309.22;4921249;28;120055;-79
2022/08/31 09:51:20;;;;;;;;;;;;;;;22.47;45.28;102302.88;4922430;28;122157;-80
2022/08/31 09:56:30;;;;;;;;;;;;;;;22.46;44.48;102304.16;4937631;28;120395;-80
2022/08/31 09:59:01;;;;;;;;;;;;;;;22.47;44.80;102298.06;4922960;28;119895;-80
2022/08/31 10:01:29;;;;;;;;;;;;;;;22.55;45.02;102299.19;4915759;28;122839;-80
2022/08/31 10:04:07;;;;;;;;;;;;;;;22.59;44.29;102296.91;4957511;28;121413;-79
2022/08/31 10:06:45;;;;;;;;;;;;;;;22.66;44.61;102295.69;4946467;28;121868;-79
2022/08/31 10:09:34;;;;;;;;;;;;;;;22.73;44.46;102294.50;4941503;28;119942;-79
2022/08/31 10:12:03;;;;;;;;;;;;;;;22.67;44.38;102289.59;4934413;28;122109;-79
2022/08/31 10:14:34;;;;;;;;;;;;;;;22.63;44.39;102296.69;4943028;28;120710;-80
2022/08/31 10:17:09;;;;;;;;;;;;;;;22.56;44.87;102288.75;4944753;28;120587;-79
2022/08/31 10:19:50;;;;;;;;;;;;;;;22.50;44.65;102293.53;4927062;28;121890;-79
2022/08/31 10:22:24;;;;;;;;;;;;;;;22.50;44.63;102293.53;4923570;28;122832;-79
2022/08/31 10:25:11;;;;;;;;;;;;;;;22.56;44.27;102291.56;4960144;28;120298;-80
2022/08/31 10:27:47;;;;;;;;;;;;;;;22.64;44.56;102287.78;4944893;28;121841;-79
2022/08/31 10:30:23;;;;;;;;;;;;;;;22.76;44.11;102273.91;4929974;28;120989;-80
2022/08/31 10:32:55;;;;;;;;;;;;;;;22.82;43.51;102286.69;4944655;28;119911;-78
2022/08/31 10:35:39;;;;;;;;;;;;;;;22.79;42.70;102276.47;4910349;28;122867;-79
2022/08/31 10:38:22;;;;;;;;;;;;;;;22.80;42.82;102282.84;4942647;28;120572;-79
2022/08/31 10:40:50;;;;;;;;;;;;;;;22.88;43.44;102275.53;4928228;28;120113;-80
2022/08/31 10:43:20;;;;;;;;;;;;;;;23.00;44.08;102279.94;4926659;28;123687;-79
2022/08/31 10:45:48;;;;;;;;;;;;;;;23.09;42.72;102281.78;4927187;28;120259;-79
2022/08/31 10:48:15;;;;;;;;;;;;;;;23.09;42.74;102278.97;4943796;28;120587;-80
2022/08/31 10:50:55;;;;;;;;;;;;;;;23.13;43.20;102266.28;4945152;28;122101;-79
2022/08/31 10:53:33;;;;;;;;;;;;;;;23.21;42.67;102281.34;4912839;28;120469;-79
2022/08/31 10:56:13;;;;;;;;;;;;;;;23.15;43.01;102274.94;4924738;28;124339;-80
2022/08/31 10:59:04;;;;;;;;;;;;;;;23.17;43.49;102269.59;4936548;28;120462;-80
2022/08/31 11:01:45;;;;;;;;;;;;;;;23.26;42.18;102277.81;4924305;28;122503;-80
2022/08/31 11:04:35;;;;;;;;;;;;;;;23.30;41.66;102274.78;4913411;28;121651;-80
2022/08/31 11:07:31;;;;;;;;;;;;;;;23.36;42.29;102278.34;4939279;28;120475;-79
2022/08/31 11:10:18;;;;;;;;;;;;;;;23.46;42.67;102273.31;4917704;28;120744;-79
2022/08/31 11:12:50;;;;;;;;;;;;;;;23.52;42.73;102269.28;4940036;28;123973;-79
2022/08/31 11:15:34;;;;;;;;;;;;;;;23.55;42.17;102273.09;4939614;28;120915;-79
2022/08/31 11:18:19;;;;;;;;;;;;;;;23.56;42.25;102274.66;4943564;28;122192;-80
2022/08/31 11:20:59;;;;;;;;;;;;;;;23.70;42.57;102272.94;4939158;28;121853;-80
2022/08/31 11:23:35;;;;;;;;;;;;;;;23.80;42.60;102269.38;4939538;28;121261;-80
2022/08/31 11:26:16;;;;;;;;;;;;;;;23.86;42.25;102263.78;4921541;28;123547;-79
2022/08/31 11:28:47;;;;;;;;;;;;;;;23.75;41.68;102269.38;4940548;28;120647;-80
2022/08/31 11:31:22;;;;;;;;;;;;;;;23.54;41.95;102274.38;4954400;28;120439;-80
2022/08/31 11:33:49;;;;;;;;;;;;;;;23.37;42.28;102267.91;4955004;28;121198;-80
2022/08/31 11:36:50;;;;;;;;;;;;;;;23.21;42.51;102269.38;4938787;28;120538;-81
2022/08/31 11:39:36;;;;;;;;;;;;;;;23.07;43.03;102257.09;4925755;28;121857;-80
2022/08/31 11:42:04;;;;;;;;;;;;;;;23.17;43.88;102261.19;4927214;28;121810;-80
2022/08/31 11:44:35;;;;;;;;;;;;;;;23.36;43.51;102266.38;4942600;28;120171;-79
2022/08/31 11:47:11;;;;;;;;;;;;;;;23.46;43.07;102273.31;4926716;28;123383;-78
2022/08/31 11:49:39;;;;;;;;;;;;;;;23.51;43.23;102269.78;4944704;28;120976;-80
2022/08/31 11:52:13;;;;;;;;;;;;;;;23.59;44.11;102273.66;4944514;28;121345;-79
2022/08/31 11:54:41;;;;;;;;;;;;;;;23.65;43.37;102265.25;4943979;28;123949;-80
2022/08/31 11:57:09;;;;;;;;;;;;;;;23.68;43.80;102258.66;4947062;28;121968;-79
2022/08/31 11:59:37;;;;;;;;;;;;;;;23.63;43.86;102262.97;4928988;28;122245;-79
2022/08/31 12:02:18;;;;;;;;;;;;;;;23.52;44.10;102260.09;4931941;28;120423;-79
2022/08/31 12:04:46;;;;;;;;;;;;;;;23.41;44.32;102257.25;4929336;28;122236;-79
2022/08/31 12:07:25;;;;;;;;;;;;;;;23.31;44.52;102256.69;4927624;28;120553;-79
2022/08/31 12:09:53;;;;;;;;;;;;;;;23.23;44.62;102259.22;4945359;28;120682;-79
2022/08/31 12:12:42;;;;;;;;;;;;;;;23.17;44.91;102249.25;4912309;28;122260;-80
2022/08/31 12:15:26;;;;;;;;;;;;;;;23.15;45.27;102255.34;4944680;28;123343;-80
2022/08/31 12:17:54;;;;;;;;;;;;;;;23.22;45.40;102252.09;4928967;28;122204;-79
2022/08/31 12:20:20;;;;;;;;;;;;;;;23.30;45.35;102251.59;4945291;28;120726;-79
2022/08/31 12:23:35;;;;;;;;;;;;;;;23.41;44.54;102251.63;4903731;28;121047;-80
2022/08/31 12:26:00;;;;;;;;;;;;;;;23.43;44.47;102249.13;4860344;28;120607;-80
2022/08/31 12:28:38;;;;;;;;;;;;;;;23.43;44.77;102247.09;4872221;28;123599;-80
2022/08/31 12:31:08;;;;;;;;;;;;;;;23.38;44.81;102244.25;4868313;28;121874;-79
2022/08/31 12:33:35;;;;;;;;;;;;;;;23.41;44.66;102240.44;4885579;28;122459;-79
2022/08/31 12:36:14;;;;;;;;;;;;;;;23.43;44.78;102227.50;4852745;28;125255;-80
2022/08/31 12:38:40;;;;;;;;;;;;;;;23.54;44.94;102237.94;4883333;28;120903;-80
2022/08/31 12:41:08;;;;;;;;;;;;;;;23.71;44.29;102230.41;4873738;28;121195;-80
2022/08/31 12:43:38;;;;;;;;;;;;;;;23.83;43.17;102242.38;4885641;28;121106;-80
2022/08/31 12:46:03;;;;;;;;;;;;;;;23.85;43.00;102240.59;4903132;28;120574;-80
2022/08/31 12:48:44;;;;;;;;;;;;;;;23.91;43.27;102231.47;4889673;28;122300;-80
2022/08/31 12:51:16;;;;;;;;;;;;;;;23.94;42.90;102233.25;4901799;28;124186;-80
2022/08/31 12:54:08;;;;;;;;;;;;;;;23.94;42.99;102236.81;4886372;28;122685;-79
2022/08/31 12:56:34;;;;;;;;;;;;;;;23.98;43.82;102226.13;4906867;28;122551;-80
2022/08/31 12:59:00;;;;;;;;;;;;;;;24.11;43.92;102228.41;4935390;28;120828;-79
2022/08/31 13:01:26;;;;;;;;;;;;;;;24.20;43.91;102222.56;4937217;28;121408;-80
2022/08/31 13:03:53;;;;;;;;;;;;;;;24.29;43.55;102225.16;4938940;28;121882;-80
2022/08/31 13:06:25;;;;;;;;;;;;;;;24.29;42.69;102225.16;4920155;28;121372;-79